Time;durP1;ratioP1;P1;durP2;ratioP2;P2;SDS_P1;SDS_P2;PMS_P1;PMS_P2;Temp;Humidity;BMP_temperature;BMP_pressure;BME280_temperature;BME280_humidity;BME280_pressure;Samples;Min_cycle;Max_cycle;Signal;HPM_P1;HPM_P2
2023/07/03 00:02:01;;;;;;;1999.90;999.90;;;16.40;92.90;;;;;;5034027;28;20050;-73
2023/07/03 00:04:27;;;;;;;1999.90;999.90;;;16.50;92.70;;;;;;5033930;28;20041;-73
2023/07/03 00:06:53;;;;;;;1999.90;999.90;;;16.60;92.60;;;;;;5032851;28;20042;-73
2023/07/03 00:09:18;;;;;;;1999.90;999.90;;;16.70;92.50;;;;;;5034672;28;20034;-73
2023/07/03 00:11:44;;;;;;;1999.90;999.90;;;16.80;92.30;;;;;;5033837;28;20085;-73
2023/07/03 00:14:09;;;;;;;1999.90;999.90;;;16.90;92.10;;;;;;5034323;28;20085;-73
2023/07/03 00:16:35;;;;;;;1999.90;999.90;;;17.20;92.00;;;;;;5034315;28;20108;-73
2023/07/03 00:19:00;;;;;;;1999.90;999.90;;;17.20;91.40;;;;;;5034238;28;20125;-73
2023/07/03 00:21:26;;;;;;;1999.90;999.90;;;17.40;91.50;;;;;;5033628;28;20092;-74
2023/07/03 00:23:51;;;;;;;1999.90;999.90;;;17.30;91.10;;;;;;5033766;28;20030;-73
2023/07/03 00:26:17;;;;;;;1999.90;999.90;;;17.40;90.90;;;;;;5033478;28;20042;-73
2023/07/03 00:28:43;;;;;;;1999.90;999.90;;;17.50;90.70;;;;;;5033982;28;20034;-73
2023/07/03 00:31:08;;;;;;;1999.90;999.90;;;17.60;90.60;;;;;;5032403;28;20065;-73
2023/07/03 00:33:34;;;;;;;1999.90;999.90;;;17.70;90.20;;;;;;5033561;28;20034;-73
2023/07/03 00:35:59;;;;;;;1999.90;999.90;;;17.80;90.20;;;;;;5033827;28;20174;-73
2023/07/03 00:38:25;;;;;;;1999.90;999.90;;;17.80;90.40;;;;;;5033973;28;20058;-72
2023/07/03 00:40:50;;;;;;;1999.90;999.90;;;18.00;89.60;;;;;;5033618;28;20041;-73
2023/07/03 00:43:17;;;;;;;1999.90;999.90;;;18.00;89.20;;;;;;5033861;28;20442;-73
2023/07/03 00:45:43;;;;;;;1999.90;999.90;;;18.00;88.60;;;;;;5033469;28;20030;-73
2023/07/03 00:48:09;;;;;;;1999.90;999.90;;;18.20;88.50;;;;;;5033728;28;20042;-73
2023/07/03 00:50:35;;;;;;;1999.90;999.90;;;18.30;88.20;;;;;;5033926;28;20483;-74
2023/07/03 00:53:04;;;;;;;1999.90;999.90;;;18.20;88.90;;;;;;5032042;28;20034;-74
2023/07/03 00:55:31;;;;;;;1999.90;999.90;;;18.20;88.20;;;;;;5033509;28;20033;-73
2023/07/03 00:57:57;;;;;;;1999.90;999.90;;;18.30;88.30;;;;;;5032240;28;20117;-73
2023/07/03 01:00:28;;;;;;;1999.90;999.90;;;18.30;88.20;;;;;;5033772;28;21792;-73
2023/07/03 01:03:10;;;;;;;1999.90;999.90;;;18.30;88.40;;;;;;5033522;28;20073;-73
2023/07/03 01:05:43;;;;;;;1999.90;999.90;;;18.30;89.00;;;;;;5033375;28;20396;-73
2023/07/03 01:08:11;;;;;;;1999.90;999.90;;;18.30;88.60;;;;;;5033334;28;20507;-73
2023/07/03 01:10:38;;;;;;;1999.90;999.90;;;18.40;88.50;;;;;;5033358;28;20189;-73
2023/07/03 01:13:09;;;;;;;1999.90;999.90;;;18.40;87.50;;;;;;5032731;28;20052;-73
2023/07/03 01:15:38;;;;;;;1999.90;999.90;;;18.40;88.40;;;;;;5032959;28;20527;-73
2023/07/03 01:18:06;;;;;;;1999.90;999.90;;;18.40;87.50;;;;;;5033351;28;20112;-73
2023/07/03 01:20:38;;;;;;;1999.90;999.90;;;18.40;88.10;;;;;;5033356;28;20570;-74
2023/07/03 01:23:10;;;;;;;1999.90;999.90;;;18.40;88.20;;;;;;5032876;28;20570;-73
2023/07/03 01:25:39;;;;;;;1999.90;999.90;;;18.40;87.90;;;;;;5033126;28;20523;-74
2023/07/03 01:28:09;;;;;;;1999.90;999.90;;;18.40;88.00;;;;;;5033138;28;20030;-73
2023/07/03 01:30:36;;;;;;;1999.90;999.90;;;18.40;87.50;;;;;;5032953;28;20424;-74
2023/07/03 01:33:03;;;;;;;1999.90;999.90;;;18.40;87.60;;;;;;5032948;28;20508;-74
2023/07/03 01:35:30;;;;;;;1999.90;999.90;;;18.40;87.80;;;;;;5032811;28;20088;-73
2023/07/03 01:37:58;;;;;;;1999.90;999.90;;;18.40;89.50;;;;;;5033070;28;20551;-74
2023/07/03 01:40:25;;;;;;;1999.90;999.90;;;18.40;88.10;;;;;;5033335;28;20040;-73
2023/07/03 01:42:53;;;;;;;1999.90;999.90;;;18.30;88.80;;;;;;5034631;28;20049;-73
2023/07/03 01:45:18;;;;;;;1999.90;999.90;;;18.30;88.80;;;;;;5036348;28;20033;-74
2023/07/03 01:47:44;;;;;;;1999.90;999.90;;;18.20;88.80;;;;;;5036480;28;20045;-73
2023/07/03 01:50:15;;;;;;;1999.90;999.90;;;18.20;88.70;;;;;;5035686;28;20030;-73
2023/07/03 01:52:46;;;;;;;1999.90;999.90;;;18.00;88.70;;;;;;5036510;28;20117;-73
2023/07/03 01:55:28;;;;;;;1999.90;999.90;;;18.10;89.10;;;;;;5036213;28;20100;-73
2023/07/03 01:58:00;;;;;;;1999.90;999.90;;;18.10;88.90;;;;;;5022067;28;20049;-74
2023/07/03 02:00:40;;;;;;;1999.90;999.90;;;18.10;88.90;;;;;;5036465;28;20034;-73
2023/07/03 02:03:14;;;;;;;1999.90;999.90;;;18.00;89.40;;;;;;5036172;28;20126;-73
2023/07/03 02:05:40;;;;;;;1999.90;999.90;;;18.10;90.20;;;;;;5036583;28;20080;-74
2023/07/03 02:08:08;;;;;;;1999.90;999.90;;;18.00;89.90;;;;;;5035947;28;20088;-73
2023/07/03 02:10:33;;;;;;;1999.90;999.90;;;18.00;90.20;;;;;;5035498;28;20038;-74
2023/07/03 02:12:59;;;;;;;1999.90;999.90;;;18.00;90.10;;;;;;5034360;28;20038;-73
2023/07/03 02:15:24;;;;;;;1999.90;999.90;;;18.00;90.10;;;;;;5035910;28;20559;-74
2023/07/03 02:17:54;;;;;;;1999.90;999.90;;;18.00;90.20;;;;;;5036461;28;20038;-74
2023/07/03 02:20:19;;;;;;;1999.90;999.90;;;17.90;90.70;;;;;;5035962;28;20085;-74
2023/07/03 02:22:45;;;;;;;1999.90;999.90;;;17.90;90.50;;;;;;5035584;28;20984;-73
2023/07/03 02:25:11;;;;;;;1999.90;999.90;;;17.90;90.90;;;;;;5035635;28;20057;-74
2023/07/03 02:27:37;;;;;;;1999.90;999.90;;;17.80;90.90;;;;;;5036107;28;20515;-74
2023/07/03 02:30:06;;;;;;;1999.90;999.90;;;17.90;91.00;;;;;;5034958;28;20503;-74
2023/07/03 02:32:37;;;;;;;1999.90;999.90;;;17.80;90.80;;;;;;5035544;28;20500;-73
2023/07/03 02:35:03;;;;;;;1999.90;999.90;;;17.80;90.40;;;;;;5035517;28;20070;-73
2023/07/03 02:37:29;;;;;;;1999.90;999.90;;;17.90;90.30;;;;;;5019921;28;20040;-74
2023/07/03 02:39:55;;;;;;;1999.90;999.90;;;17.90;90.40;;;;;;5034242;28;20058;-74
2023/07/03 02:42:21;;;;;;;1999.90;999.90;;;17.90;90.40;;;;;;5035244;28;20124;-74
2023/07/03 02:44:46;;;;;;;1999.90;999.90;;;18.00;90.40;;;;;;5035687;28;20476;-73
2023/07/03 02:47:12;;;;;;;1999.90;999.90;;;18.00;90.10;;;;;;5035184;28;20046;-73
2023/07/03 02:49:37;;;;;;;1999.90;999.90;;;18.00;90.40;;;;;;5035865;28;20041;-73
2023/07/03 02:52:03;;;;;;;1999.90;999.90;;;18.00;90.20;;;;;;5033462;28;20037;-74
2023/07/03 02:54:29;;;;;;;1999.90;999.90;;;18.00;90.60;;;;;;5032556;28;20519;-73
2023/07/03 02:56:54;;;;;;;1999.90;999.90;;;18.00;90.70;;;;;;5035074;28;20069;-73
2023/07/03 02:59:20;;;;;;;1999.90;999.90;;;18.00;90.50;;;;;;5035497;28;20113;-73
2023/07/03 03:01:45;;;;;;;1999.90;999.90;;;18.00;90.80;;;;;;5034867;28;20092;-73
2023/07/03 03:04:11;;;;;;;1999.90;999.90;;;17.90;90.70;;;;;;5034669;28;20396;-74
2023/07/03 03:06:38;;;;;;;1999.90;999.90;;;17.90;90.70;;;;;;5035230;28;20077;-74
2023/07/03 03:09:05;;;;;;;1999.90;999.90;;;18.00;90.70;;;;;;5035132;28;20049;-73
2023/07/03 03:11:30;;;;;;;1999.90;999.90;;;18.00;90.50;;;;;;5035121;28;20380;-74
2023/07/03 03:13:56;;;;;;;1999.90;999.90;;;18.00;91.00;;;;;;5033392;28;20045;-74
2023/07/03 03:16:21;;;;;;;1999.90;999.90;;;18.00;90.80;;;;;;5034859;28;20096;-74
2023/07/03 03:18:47;;;;;;;1999.90;999.90;;;18.10;90.40;;;;;;5035262;28;20437;-74
2023/07/03 03:21:15;;;;;;;1999.90;999.90;;;18.20;90.30;;;;;;5034669;28;20046;-73
2023/07/03 03:23:40;;;;;;;1999.90;999.90;;;18.20;90.10;;;;;;5034706;28;20037;-74
2023/07/03 03:26:06;;;;;;;1999.90;999.90;;;18.20;90.20;;;;;;5034719;28;20042;-74
2023/07/03 03:28:33;;;;;;;1999.90;999.90;;;18.20;90.30;;;;;;5034933;28;20037;-74
2023/07/03 03:30:59;;;;;;;1999.90;999.90;;;18.20;90.20;;;;;;5033941;28;20038;-74
2023/07/03 03:33:24;;;;;;;1999.90;999.90;;;18.30;90.50;;;;;;5034745;28;20034;-73
2023/07/03 03:35:50;;;;;;;1999.90;999.90;;;18.30;90.00;;;;;;5034753;28;20041;-74
2023/07/03 03:38:15;;;;;;;1999.90;999.90;;;18.40;90.10;;;;;;5033157;28;20030;-74
2023/07/03 03:40:52;;;;;;;1999.90;999.90;;;18.30;90.40;;;;;;5034645;28;20487;-73
2023/07/03 03:43:17;;;;;;;1999.90;999.90;;;18.30;90.00;;;;;;5034297;28;20049;-74
2023/07/03 03:45:43;;;;;;;1999.90;999.90;;;18.30;90.30;;;;;;5033928;28;20392;-74
2023/07/03 03:48:08;;;;;;;1999.90;999.90;;;18.30;90.10;;;;;;5032973;28;20109;-74
2023/07/03 03:50:34;;;;;;;1999.90;999.90;;;18.30;90.40;;;;;;5034526;28;20030;-74
2023/07/03 03:52:59;;;;;;;1999.90;999.90;;;18.20;90.40;;;;;;5033623;28;21965;-74
2023/07/03 03:55:25;;;;;;;1999.90;999.90;;;18.20;90.40;;;;;;5034557;28;20030;-74
2023/07/03 03:57:50;;;;;;;1999.90;999.90;;;18.30;90.30;;;;;;5034227;28;20492;-74
2023/07/03 04:00:16;;;;;;;1999.90;999.90;;;18.20;90.40;;;;;;5034624;28;20399;-74
2023/07/03 04:02:43;;;;;;;1999.90;999.90;;;18.20;90.40;;;;;;5034013;28;20494;-74
2023/07/03 04:05:08;;;;;;;1999.90;999.90;;;18.20;91.00;;;;;;5033577;28;20038;-73
2023/07/03 04:07:34;;;;;;;1999.90;999.90;;;18.20;90.90;;;;;;5034239;28;20496;-73
2023/07/03 04:09:59;;;;;;;1999.90;999.90;;;18.20;90.90;;;;;;5034156;28;20165;-74
2023/07/03 04:12:25;;;;;;;1999.90;999.90;;;18.10;90.80;;;;;;5033065;28;20113;-73
2023/07/03 04:14:51;;;;;;;1999.90;999.90;;;18.20;90.70;;;;;;5033726;28;20132;-73
2023/07/03 04:17:16;;;;;;;1999.90;999.90;;;18.10;90.60;;;;;;5034199;28;20061;-74
2023/07/03 04:19:42;;;;;;;1999.90;999.90;;;18.10;90.70;;;;;;5033950;28;21741;-74
2023/07/03 04:22:07;;;;;;;1999.90;999.90;;;18.10;90.80;;;;;;5033583;28;20042;-74
2023/07/03 04:24:34;;;;;;;1999.90;999.90;;;18.20;90.70;;;;;;5033964;28;20038;-74
2023/07/03 04:27:00;;;;;;;1999.90;999.90;;;18.20;90.60;;;;;;5034269;28;20551;-74
2023/07/03 04:29:26;;;;;;;1999.90;999.90;;;18.20;90.30;;;;;;5033740;28;20034;-73
2023/07/03 04:31:51;;;;;;;1999.90;999.90;;;18.30;90.50;;;;;;5033487;28;20532;-74
2023/07/03 04:34:16;;;;;;;1999.90;999.90;;;18.30;90.40;;;;;;5033999;28;20503;-74
2023/07/03 04:36:43;;;;;;;1999.90;999.90;;;18.40;90.50;;;;;;5033845;28;20069;-73
2023/07/03 04:39:08;;;;;;;1999.90;999.90;;;18.40;90.30;;;;;;5033875;28;20042;-74
2023/07/03 04:41:34;;;;;;;1999.90;999.90;;;18.50;90.10;;;;;;5032219;28;20037;-74
2023/07/03 04:44:01;;;;;;;1999.90;999.90;;;18.50;90.30;;;;;;5031563;28;20089;-74
2023/07/03 04:46:27;;;;;;;1999.90;999.90;;;18.50;90.20;;;;;;5033998;28;20530;-73
2023/07/03 04:48:55;;;;;;;1999.90;999.90;;;18.60;90.00;;;;;;5033692;28;20116;-74
2023/07/03 04:51:21;;;;;;;1999.90;999.90;;;18.50;90.20;;;;;;5033584;28;20099;-74
2023/07/03 04:53:47;;;;;;;1999.90;999.90;;;18.50;90.70;;;;;;5033576;28;20058;-74
2023/07/03 04:56:12;;;;;;;1999.90;999.90;;;18.50;90.40;;;;;;5033588;28;20033;-73
2023/07/03 04:58:39;;;;;;;1999.90;999.90;;;18.60;90.20;;;;;;5032959;28;20084;-73
2023/07/03 05:01:04;;;;;;;1999.90;999.90;;;18.60;90.10;;;;;;5033384;28;20037;-73
2023/07/03 05:03:31;;;;;;;1999.90;999.90;;;18.70;90.00;;;;;;5033580;28;20443;-73
2023/07/03 05:05:57;;;;;;;1999.90;999.90;;;18.70;90.20;;;;;;5031978;28;20081;-74
2023/07/03 05:08:24;;;;;;;1999.90;999.90;;;18.70;90.10;;;;;;5031582;28;20096;-74
2023/07/03 05:10:51;;;;;;;1999.90;999.90;;;18.70;90.20;;;;;;5032966;28;20040;-74
2023/07/03 05:13:16;;;;;;;1999.90;999.90;;;18.70;90.30;;;;;;5031138;28;20037;-74
2023/07/03 05:15:42;;;;;;;1999.90;999.90;;;18.70;90.80;;;;;;5027895;28;20408;-75
2023/07/03 05:18:07;;;;;;;1999.90;999.90;;;18.70;90.50;;;;;;5026991;28;20046;-75
2023/07/03 05:20:33;;;;;;;1999.90;999.90;;;18.70;90.40;;;;;;5036890;28;20049;-75
2023/07/03 05:22:58;;;;;;;1999.90;999.90;;;18.80;90.50;;;;;;5035777;28;20139;-75
2023/07/03 05:25:24;;;;;;;1999.90;999.90;;;18.80;91.00;;;;;;5035042;28;20053;-76
2023/07/03 05:27:50;;;;;;;1999.90;999.90;;;18.90;90.60;;;;;;5028156;28;20059;-77
2023/07/03 05:30:15;;;;;;;1999.90;999.90;;;18.90;90.50;;;;;;5035486;28;20030;-76
2023/07/03 05:32:41;;;;;;;1999.90;999.90;;;19.00;90.40;;;;;;5037330;28;20045;-75
2023/07/03 05:35:08;;;;;;;1999.90;999.90;;;19.00;90.20;;;;;;5034661;28;20038;-76
2023/07/03 05:37:35;;;;;;;1999.90;999.90;;;19.10;90.10;;;;;;5036424;28;20045;-75
2023/07/03 05:40:01;;;;;;;1999.90;999.90;;;19.10;90.20;;;;;;5036247;28;20034;-75
2023/07/03 05:42:27;;;;;;;1999.90;999.90;;;19.10;90.20;;;;;;5026831;28;20128;-76
2023/07/03 05:44:52;;;;;;;1999.90;999.90;;;19.20;90.20;;;;;;5019850;28;20034;-76
2023/07/03 05:47:18;;;;;;;1999.90;999.90;;;19.20;90.20;;;;;;5035902;28;20049;-75
2023/07/03 05:49:43;;;;;;;1999.90;999.90;;;19.20;90.70;;;;;;5036598;28;20042;-76
2023/07/03 05:52:10;;;;;;;1999.90;999.90;;;19.20;90.40;;;;;;5035743;28;20042;-77
2023/07/03 05:54:36;;;;;;;1999.90;999.90;;;19.20;90.40;;;;;;5037682;28;20045;-78
2023/07/03 05:57:09;;;;;;;1999.90;999.90;;;19.30;90.30;;;;;;5037042;28;20042;-77
2023/07/03 05:59:35;;;;;;;1999.90;999.90;;;19.30;90.60;;;;;;5036837;28;20451;-77
2023/07/03 06:02:03;;;;;;;1999.90;999.90;;;19.40;90.60;;;;;;5036368;28;20049;-77
2023/07/03 06:04:29;;;;;;;1999.90;999.90;;;19.50;90.50;;;;;;5035457;28;20038;-77
2023/07/03 06:06:56;;;;;;;1999.90;999.90;;;19.50;90.50;;;;;;5034520;28;20081;-76
2023/07/03 06:09:26;;;;;;;1999.90;999.90;;;19.70;90.70;;;;;;5034789;28;20038;-76
2023/07/03 06:11:51;;;;;;;1999.90;999.90;;;19.70;90.30;;;;;;5035360;28;20496;-76
2023/07/03 06:14:18;;;;;;;1999.90;999.90;;;19.70;90.00;;;;;;5036083;28;20033;-76
2023/07/03 06:16:45;;;;;;;1999.90;999.90;;;19.70;90.00;;;;;;5036552;28;20041;-77
2023/07/03 06:19:11;;;;;;;1999.90;999.90;;;19.70;90.20;;;;;;5036409;28;20044;-76
2023/07/03 06:21:37;;;;;;;1999.90;999.90;;;19.70;90.00;;;;;;5035519;28;20511;-76
2023/07/03 06:24:04;;;;;;;1999.90;999.90;;;19.80;90.00;;;;;;5035180;28;20038;-75
2023/07/03 06:26:30;;;;;;;1999.90;999.90;;;19.90;90.30;;;;;;5035439;28;20071;-75
2023/07/03 06:28:55;;;;;;;1999.90;999.90;;;19.90;89.70;;;;;;5035707;28;20026;-77
2023/07/03 06:31:21;;;;;;;1999.90;999.90;;;19.90;90.00;;;;;;5035950;28;20447;-75
2023/07/03 06:33:47;;;;;;;1999.90;999.90;;;19.80;90.70;;;;;;5035453;28;20047;-76
2023/07/03 06:36:14;;;;;;;1999.90;999.90;;;19.70;90.30;;;;;;5035249;28;20049;-75
2023/07/03 06:38:39;;;;;;;1999.90;999.90;;;19.70;90.80;;;;;;5019661;28;20033;-74
2023/07/03 06:41:05;;;;;;;1999.90;999.90;;;19.90;90.50;;;;;;5034879;28;20373;-75
2023/07/03 06:43:30;;;;;;;1999.90;999.90;;;20.10;90.00;;;;;;5035372;28;20041;-74
2023/07/03 06:45:56;;;;;;;1999.90;999.90;;;20.40;89.40;;;;;;5036523;28;20044;-74
2023/07/03 06:48:21;;;;;;;1999.90;999.90;;;20.50;89.10;;;;;;5034323;28;20042;-74
2023/07/03 06:50:47;;;;;;;1999.90;999.90;;;20.70;89.20;;;;;;5033222;28;24920;-74
2023/07/03 06:53:12;;;;;;;1999.90;999.90;;;20.90;89.40;;;;;;5031486;28;20046;-75
2023/07/03 06:55:38;;;;;;;1999.90;999.90;;;21.10;88.20;;;;;;5035057;28;20065;-74
2023/07/03 06:58:03;;;;;;;1999.90;999.90;;;21.20;87.50;;;;;;5034817;28;20042;-74
2023/07/03 07:00:29;;;;;;;1999.90;999.90;;;21.10;86.60;;;;;;5034874;28;20121;-74
2023/07/03 07:02:55;;;;;;;1999.90;999.90;;;21.20;86.70;;;;;;5034974;28;20052;-75
2023/07/03 07:05:21;;;;;;;1999.90;999.90;;;20.90;86.80;;;;;;5033598;28;20575;-74
2023/07/03 07:07:47;;;;;;;1999.90;999.90;;;20.90;86.90;;;;;;5027431;28;20044;-74
2023/07/03 07:10:12;;;;;;;1999.90;999.90;;;20.90;85.60;;;;;;5029015;28;20065;-75
2023/07/03 07:12:38;;;;;;;1999.90;999.90;;;20.70;86.20;;;;;;5033072;28;20128;-74
2023/07/03 07:15:04;;;;;;;1999.90;999.90;;;20.80;86.20;;;;;;5034637;28;20041;-75
2023/07/03 07:17:30;;;;;;;1999.90;999.90;;;20.80;86.60;;;;;;5034813;28;20089;-75
2023/07/03 07:19:55;;;;;;;1999.90;999.90;;;20.70;87.40;;;;;;5034652;28;20473;-75
2023/07/03 07:22:21;;;;;;;1999.90;999.90;;;21.00;86.70;;;;;;5034647;28;20077;-75
2023/07/03 07:24:46;;;;;;;1999.90;999.90;;;21.10;86.10;;;;;;5034842;28;20045;-75
2023/07/03 07:27:12;;;;;;;1999.90;999.90;;;20.90;86.40;;;;;;5034412;28;20046;-74
2023/07/03 07:29:39;;;;;;;1999.90;999.90;;;21.00;87.40;;;;;;5029466;28;20037;-74
2023/07/03 07:32:06;;;;;;;1999.90;999.90;;;21.10;86.30;;;;;;5032847;28;20046;-74
2023/07/03 07:34:31;;;;;;;1999.90;999.90;;;21.10;86.30;;;;;;5034277;28;20038;-75
2023/07/03 07:36:57;;;;;;;1999.90;999.90;;;21.10;86.10;;;;;;5025687;28;20030;-74
2023/07/03 07:39:26;;;;;;;1999.90;999.90;;;21.30;86.60;;;;;;5033455;28;20045;-74
2023/07/03 07:41:55;;;;;;;1999.90;999.90;;;21.50;85.70;;;;;;5034396;28;20038;-75
2023/07/03 07:44:20;;;;;;;1999.90;999.90;;;21.50;84.20;;;;;;5033034;28;20038;-75
2023/07/03 07:46:46;;;;;;;1999.90;999.90;;;21.40;83.80;;;;;;5034214;28;20480;-76
2023/07/03 07:49:12;;;;;;;1999.90;999.90;;;21.50;83.60;;;;;;5034968;28;20034;-74
2023/07/03 07:51:39;;;;;;;1999.90;999.90;;;21.60;82.50;;;;;;5034176;28;20046;-76
2023/07/03 07:54:04;;;;;;;1999.90;999.90;;;21.60;82.50;;;;;;5034144;28;20037;-77
2023/07/03 07:56:30;;;;;;;1999.90;999.90;;;21.60;82.20;;;;;;5034190;28;20045;-75
2023/07/03 07:58:56;;;;;;;1999.90;999.90;;;21.70;82.80;;;;;;5032256;28;23535;-76
2023/07/03 08:01:21;;;;;;;1999.90;999.90;;;21.70;81.70;;;;;;5033514;28;20076;-76
2023/07/03 08:03:47;;;;;;;1999.90;999.90;;;21.70;80.90;;;;;;5033639;28;20044;-76
2023/07/03 08:06:15;;;;;;;1999.90;999.90;;;21.50;81.20;;;;;;5034513;28;20081;-73
2023/07/03 08:08:41;;;;;;;1999.90;999.90;;;21.50;82.10;;;;;;5033717;28;20491;-74
2023/07/03 08:11:08;;;;;;;1999.90;999.90;;;21.70;80.20;;;;;;5033977;28;20101;-74
2023/07/03 08:13:35;;;;;;;1999.90;999.90;;;21.80;78.90;;;;;;5033612;28;20049;-75
2023/07/03 08:16:01;;;;;;;1999.90;999.90;;;21.60;80.30;;;;;;5033981;28;20066;-74
2023/07/03 08:18:26;;;;;;;1999.90;999.90;;;21.30;81.40;;;;;;5032484;28;20134;-80
2023/07/03 08:20:53;;;;;;;1999.90;999.90;;;21.20;80.50;;;;;;5031832;28;20041;-74
2023/07/03 08:23:19;;;;;;;1999.90;999.90;;;21.40;81.10;;;;;;5032008;28;20109;-74
2023/07/03 08:25:50;;;;;;;1999.90;999.90;;;21.60;80.70;;;;;;5033686;28;20030;-74
2023/07/03 08:28:15;;;;;;;1999.90;999.90;;;22.00;79.80;;;;;;5033887;28;20054;-74
2023/07/03 08:30:41;;;;;;;1999.90;999.90;;;22.00;78.00;;;;;;5034714;28;20057;-75
2023/07/03 08:33:06;;;;;;;1999.90;999.90;;;21.80;80.10;;;;;;5031894;28;20042;-74
2023/07/03 08:35:32;;;;;;;1999.90;999.90;;;21.80;78.50;;;;;;5033892;28;20484;-74
2023/07/03 08:38:00;;;;;;;1999.90;999.90;;;22.10;80.10;;;;;;5029778;28;20038;-75
2023/07/03 08:40:25;;;;;;;1999.90;999.90;;;22.10;78.80;;;;;;5034174;28;20038;-76
2023/07/03 08:42:53;;;;;;;1999.90;999.90;;;22.30;79.60;;;;;;5034062;28;20038;-75
2023/07/03 08:45:22;;;;;;;1999.90;999.90;;;22.20;78.40;;;;;;5033086;28;20500;-74
2023/07/03 08:47:51;;;;;;;1999.90;999.90;;;22.20;78.20;;;;;;5033646;28;20042;-76
2023/07/03 08:50:19;;;;;;;1999.90;999.90;;;22.10;79.90;;;;;;5034225;28;20475;-76
2023/07/03 08:53:00;;;;;;;1999.90;999.90;;;22.20;78.80;;;;;;5037135;28;20034;-76
2023/07/03 08:55:30;;;;;;;1999.90;999.90;;;22.30;77.60;;;;;;5038120;28;20041;-75
2023/07/03 08:57:56;;;;;;;1999.90;999.90;;;22.40;78.60;;;;;;5037711;28;20038;-76
2023/07/03 09:00:22;;;;;;;1999.90;999.90;;;22.70;76.10;;;;;;5038220;28;20062;-80
2023/07/03 09:02:53;;;;;;;1999.90;999.90;;;22.50;77.10;;;;;;5019859;28;20054;-74
2023/07/03 09:05:45;;;;;;;1999.90;999.90;;;22.30;77.40;;;;;;5036895;28;20116;-76
2023/07/03 09:08:19;;;;;;;1999.90;999.90;;;22.50;78.10;;;;;;5030455;28;20046;-72
2023/07/03 09:10:48;;;;;;;1999.90;999.90;;;22.60;77.80;;;;;;5016365;28;20046;-76
2023/07/03 09:13:43;;;;;;;1999.90;999.90;;;22.90;76.70;;;;;;5017047;28;20027;-74
2023/07/03 09:16:18;;;;;;;1999.90;999.90;;;23.30;76.70;;;;;;5020402;28;20046;-75
2023/07/03 09:18:52;;;;;;;1999.90;999.90;;;24.10;73.60;;;;;;5036079;28;20045;-74
2023/07/03 09:21:19;;;;;;;1999.90;999.90;;;24.70;71.70;;;;;;5037124;28;20038;-75
2023/07/03 09:24:01;;;;;;;1999.90;999.90;;;24.20;72.00;;;;;;5037002;28;20038;-75
2023/07/03 09:26:42;;;;;;;1999.90;999.90;;;24.10;72.20;;;;;;5036101;28;20447;-77
2023/07/03 09:29:07;;;;;;;1999.90;999.90;;;24.00;72.70;;;;;;5034381;28;20424;-77
2023/07/03 09:31:33;;;;;;;1999.90;999.90;;;23.20;74.50;;;;;;5036115;28;20036;-75
2023/07/03 09:33:59;;;;;;;1999.90;999.90;;;22.50;76.30;;;;;;5034324;28;20040;-70
2023/07/03 09:36:36;;;;;;;1999.90;999.90;;;22.50;76.90;;;;;;5034497;28;20052;-71
2023/07/03 09:39:18;;;;;;;1999.90;999.90;;;22.80;77.10;;;;;;5024452;28;20483;-71
2023/07/03 09:41:44;;;;;;;1999.90;999.90;;;23.20;76.00;;;;;;5023493;28;20042;-72
2023/07/03 09:44:15;;;;;;;1999.90;999.90;;;23.40;74.70;;;;;;5035912;28;20041;-73
2023/07/03 09:46:41;;;;;;;1999.90;999.90;;;23.50;75.60;;;;;;5036481;28;20515;-72
2023/07/03 09:49:21;;;;;;;1999.90;999.90;;;23.90;72.90;;;;;;5036847;28;20502;-72
2023/07/03 09:51:52;;;;;;;1999.90;999.90;;;23.90;72.80;;;;;;5030158;28;20034;-72
2023/07/03 09:54:25;;;;;;;1999.90;999.90;;;24.40;72.50;;;;;;5031019;28;20044;-71
2023/07/03 09:56:51;;;;;;;1999.90;999.90;;;24.30;71.60;;;;;;5029766;28;20041;-70
2023/07/03 09:59:19;;;;;;;1999.90;999.90;;;24.70;73.50;;;;;;5036026;28;20384;-70
2023/07/03 10:01:46;;;;;;;1999.90;999.90;;;24.80;71.30;;;;;;5032524;28;20073;-70
2023/07/03 10:04:15;;;;;;;1999.90;999.90;;;24.50;71.10;;;;;;5015809;28;20054;-71
2023/07/03 10:07:04;;;;;;;1999.90;999.90;;;24.40;70.40;;;;;;5035400;28;20050;-69
2023/07/03 10:09:35;;;;;;;1999.90;999.90;;;24.40;72.30;;;;;;5016195;28;20029;-71
2023/07/03 10:12:22;;;;;;;1999.90;999.90;;;24.20;72.20;;;;;;5015738;28;20181;-74
2023/07/03 10:15:10;;;;;;;1999.90;999.90;;;24.10;72.00;;;;;;5016657;28;20122;-72
2023/07/03 10:17:45;;;;;;;1999.90;999.90;;;24.20;71.00;;;;;;5031664;28;20496;-71
2023/07/03 10:20:19;;;;;;;1999.90;999.90;;;24.40;71.30;;;;;;5025220;28;20552;-71
2023/07/03 10:22:46;;;;;;;1999.90;999.90;;;25.00;70.90;;;;;;5034778;28;20034;-70
2023/07/03 10:25:20;;;;;;;1999.90;999.90;;;25.30;69.20;;;;;;5030003;28;20035;-70
2023/07/03 10:27:48;;;;;;;1999.90;999.90;;;24.90;68.90;;;;;;5024505;28;20126;-71
2023/07/03 10:30:15;;;;;;;1999.90;999.90;;;25.00;70.00;;;;;;5026828;28;20034;-74
2023/07/03 10:32:45;;;;;;;1999.90;999.90;;;24.70;68.60;;;;;;5024243;28;20034;-71
2023/07/03 10:35:22;;;;;;;1999.90;999.90;;;24.30;70.80;;;;;;5026105;28;20030;-73
2023/07/03 10:37:59;;;;;;;1999.90;999.90;;;23.90;70.80;;;;;;5015965;28;20113;-71
2023/07/03 10:40:44;;;;;;;1999.90;999.90;;;23.60;71.70;;;;;;5016321;28;20114;-77
2023/07/03 10:43:12;;;;;;;1999.90;999.90;;;23.70;72.10;;;;;;5015710;28;20137;-72
2023/07/03 10:45:38;;;;;;;1999.90;999.90;;;23.80;72.60;;;;;;5024834;28;20121;-71
2023/07/03 10:48:28;;;;;;;1999.90;999.90;;;23.70;72.60;;;;;;5022185;28;20030;-72
2023/07/03 10:51:15;;;;;;;1999.90;999.90;;;23.20;73.20;;;;;;5018548;28;20070;-70
2023/07/03 10:53:47;;;;;;;1999.90;999.90;;;23.10;74.10;;;;;;5024267;28;20042;-72
2023/07/03 10:56:31;;;;;;;1999.90;999.90;;;23.00;74.10;;;;;;5023864;28;20528;-73
2023/07/03 10:59:17;;;;;;;1999.90;999.90;;;23.00;73.90;;;;;;5026305;28;20041;-75
2023/07/03 11:02:05;;;;;;;1999.90;999.90;;;23.20;73.20;;;;;;5023268;28;20045;-74
2023/07/03 11:04:44;;;;;;;1999.90;999.90;;;23.50;72.70;;;;;;5024048;28;20034;-74
2023/07/03 11:07:26;;;;;;;1999.90;999.90;;;24.00;72.30;;;;;;5028975;28;20073;-75
2023/07/03 11:10:00;;;;;;;1999.90;999.90;;;24.70;70.70;;;;;;5026483;28;20042;-73
2023/07/03 11:12:49;;;;;;;1999.90;999.90;;;24.70;70.40;;;;;;5025046;28;20503;-70
2023/07/03 11:15:27;;;;;;;1999.90;999.90;;;24.50;70.50;;;;;;5025055;28;20112;-70
2023/07/03 11:17:53;;;;;;;1999.90;999.90;;;24.30;72.40;;;;;;5026061;28;20069;-72
2023/07/03 11:20:35;;;;;;;1999.90;999.90;;;25.10;70.10;;;;;;5023764;28;20053;-76
2023/07/03 11:23:10;;;;;;;1999.90;999.90;;;24.70;69.90;;;;;;5020099;28;20121;-72
2023/07/03 11:25:57;;;;;;;1999.90;999.90;;;24.40;70.00;;;;;;5024276;28;20395;-69
2023/07/03 11:28:33;;;;;;;1999.90;999.90;;;24.40;71.30;;;;;;5024800;28;20034;-72
2023/07/03 11:31:01;;;;;;;1999.90;999.90;;;24.10;71.10;;;;;;5022297;28;20105;-72
2023/07/03 11:33:29;;;;;;;1999.90;999.90;;;24.00;72.10;;;;;;5027266;28;20044;-71
2023/07/03 11:35:57;;;;;;;1999.90;999.90;;;23.80;72.10;;;;;;5033589;28;20075;-72
2023/07/03 11:38:23;;;;;;;1999.90;999.90;;;24.20;71.00;;;;;;5025433;28;20518;-71
2023/07/03 11:40:55;;;;;;;1999.90;999.90;;;24.40;70.80;;;;;;5027671;28;20042;-71
2023/07/03 11:43:21;;;;;;;1999.90;999.90;;;24.70;71.40;;;;;;5027277;28;20412;-71
2023/07/03 11:46:03;;;;;;;1999.90;999.90;;;25.20;68.80;;;;;;5027167;28;20073;-73
2023/07/03 11:48:41;;;;;;;1999.90;999.90;;;25.10;68.20;;;;;;5025772;28;20056;-72
2023/07/03 11:51:12;;;;;;;1999.90;999.90;;;25.20;68.50;;;;;;5026616;28;20053;-73
2023/07/03 11:53:52;;;;;;;1999.90;999.90;;;25.30;68.60;;;;;;5027223;28;20124;-72
2023/07/03 11:56:36;;;;;;;1999.90;999.90;;;25.40;68.60;;;;;;5027065;28;20093;-73
2023/07/03 11:59:08;;;;;;;1999.90;999.90;;;25.70;66.60;;;;;;5026692;28;20579;-72
2023/07/03 12:01:36;;;;;;;1999.90;999.90;;;25.60;66.30;;;;;;5023063;28;20042;-72
2023/07/03 12:04:05;;;;;;;1999.90;999.90;;;25.30;67.20;;;;;;5022504;28;20052;-72
2023/07/03 12:06:40;;;;;;;1999.90;999.90;;;25.60;67.90;;;;;;5026831;28;20049;-71